Terminal Aerodrome Forecast
Issued by NWS Cleveland, OH

Home | Current Version | Previous Version | Text Only | Print | Product List | Glossary Off
Versions: 1 2 3 4 5 6 7 8 9 10 11 12 13 14 15 16 17 18 19 20 21 22 23 24

000
FTUS41 KCLE 221100
TAFCLE
TAF
KCLE 221136Z 2212/2318 24012G22KT P6SM VCSH BKN040 OVC080
     FM221600 27020G30KT P6SM VCSH OVC040
     FM230200 27012KT P6SM OVC025=

USA.gov is the U.S. government's official web portal to all federal, state and local government web resources and services.